sensor_id;sensor_type;location;lat;lon;timestamp;temperature;humidity
66670;DHT22;53568;52.164;4.472;2023-08-31T00:01:38;16.69;68.87
66670;DHT22;53568;52.164;4.472;2023-08-31T00:04:04;16.62;69.89
66670;DHT22;53568;52.164;4.472;2023-08-31T00:06:31;16.65;70.41
66670;DHT22;53568;52.164;4.472;2023-08-31T00:08:56;16.70;70.49
66670;DHT22;53568;52.164;4.472;2023-08-31T00:11:22;16.69;70.74
66670;DHT22;53568;52.164;4.472;2023-08-31T00:13:48;16.66;70.84
66670;DHT22;53568;52.164;4.472;2023-08-31T00:16:13;16.73;70.74
66670;DHT22;53568;52.164;4.472;2023-08-31T00:18:39;16.73;70.62
66670;DHT22;53568;52.164;4.472;2023-08-31T00:21:04;16.76;70.27
66670;DHT22;53568;52.164;4.472;2023-08-31T00:23:30;16.76;69.63
66670;DHT22;53568;52.164;4.472;2023-08-31T00:25:55;16.75;68.23
66670;DHT22;53568;52.164;4.472;2023-08-31T00:28:22;16.76;67.96
66670;DHT22;53568;52.164;4.472;2023-08-31T00:30:48;16.79;67.72
66670;DHT22;53568;52.164;4.472;2023-08-31T00:33:15;16.82;67.24
66670;DHT22;53568;52.164;4.472;2023-08-31T00:35:41;16.84;66.85
66670;DHT22;53568;52.164;4.472;2023-08-31T00:38:12;16.87;66.78
66670;DHT22;53568;52.164;4.472;2023-08-31T00:40:39;16.90;66.54
66670;DHT22;53568;52.164;4.472;2023-08-31T00:43:06;16.97;66.08
66670;DHT22;53568;52.164;4.472;2023-08-31T00:45:33;16.92;66.26
66670;DHT22;53568;52.164;4.472;2023-08-31T00:48:00;16.86;66.33
66670;DHT22;53568;52.164;4.472;2023-08-31T00:50:26;16.87;66.05
66670;DHT22;53568;52.164;4.472;2023-08-31T00:52:51;16.82;65.98
66670;DHT22;53568;52.164;4.472;2023-08-31T00:55:17;16.84;66.02
66670;DHT22;53568;52.164;4.472;2023-08-31T00:57:43;16.82;65.73
66670;DHT22;53568;52.164;4.472;2023-08-31T01:00:10;16.82;65.92
66670;DHT22;53568;52.164;4.472;2023-08-31T01:02:45;16.83;65.95
66670;DHT22;53568;52.164;4.472;2023-08-31T01:05:29;16.79;66.23
66670;DHT22;53568;52.164;4.472;2023-08-31T01:10:57;16.63;68.54
66670;DHT22;53568;52.164;4.472;2023-08-31T01:13:25;16.60;68.89
66670;DHT22;53568;52.164;4.472;2023-08-31T01:15:59;16.55;68.77
66670;DHT22;53568;52.164;4.472;2023-08-31T01:18:27;16.60;68.46
66670;DHT22;53568;52.164;4.472;2023-08-31T01:21:27;16.59;67.93
66670;DHT22;53568;52.164;4.472;2023-08-31T01:23:55;16.48;67.32
66670;DHT22;53568;52.164;4.472;2023-08-31T01:26:22;16.38;67.70
66670;DHT22;53568;52.164;4.472;2023-08-31T01:28:49;16.33;67.64
66670;DHT22;53568;52.164;4.472;2023-08-31T01:31:15;16.33;67.30
66670;DHT22;53568;52.164;4.472;2023-08-31T01:33:41;16.32;67.10
66670;DHT22;53568;52.164;4.472;2023-08-31T01:36:21;16.33;66.99
66670;DHT22;53568;52.164;4.472;2023-08-31T01:38:54;16.35;66.96
66670;DHT22;53568;52.164;4.472;2023-08-31T01:41:26;16.36;66.92
66670;DHT22;53568;52.164;4.472;2023-08-31T01:43:53;16.33;67.10
66670;DHT22;53568;52.164;4.472;2023-08-31T01:46:19;16.35;67.18
66670;DHT22;53568;52.164;4.472;2023-08-31T01:48:45;16.42;67.29
66670;DHT22;53568;52.164;4.472;2023-08-31T01:51:11;16.48;67.31
66670;DHT22;53568;52.164;4.472;2023-08-31T01:53:37;16.55;67.25
66670;DHT22;53568;52.164;4.472;2023-08-31T01:56:03;16.58;67.41
66670;DHT22;53568;52.164;4.472;2023-08-31T01:58:30;16.62;67.33
66670;DHT22;53568;52.164;4.472;2023-08-31T02:00:55;16.63;67.43
66670;DHT22;53568;52.164;4.472;2023-08-31T02:03:22;16.68;67.53
66670;DHT22;53568;52.164;4.472;2023-08-31T02:05:47;16.69;67.77
66670;DHT22;53568;52.164;4.472;2023-08-31T02:08:13;16.75;67.86
66670;DHT22;53568;52.164;4.472;2023-08-31T02:10:43;16.73;67.80
66670;DHT22;53568;52.164;4.472;2023-08-31T02:13:09;16.73;67.27
66670;DHT22;53568;52.164;4.472;2023-08-31T02:15:38;16.75;67.29
66670;DHT22;53568;52.164;4.472;2023-08-31T02:18:03;16.83;66.89
66670;DHT22;53568;52.164;4.472;2023-08-31T02:20:29;16.82;66.24
66670;DHT22;53568;52.164;4.472;2023-08-31T02:22:56;16.89;65.48
66670;DHT22;53568;52.164;4.472;2023-08-31T02:25:21;16.93;65.17
66670;DHT22;53568;52.164;4.472;2023-08-31T02:27:47;16.94;64.95
66670;DHT22;53568;52.164;4.472;2023-08-31T02:30:12;17.04;64.57
66670;DHT22;53568;52.164;4.472;2023-08-31T02:32:38;17.04;64.47
66670;DHT22;53568;52.164;4.472;2023-08-31T02:35:04;17.02;64.67
66670;DHT22;53568;52.164;4.472;2023-08-31T02:37:30;17.10;64.57
66670;DHT22;53568;52.164;4.472;2023-08-31T02:39:55;17.16;64.76
66670;DHT22;53568;52.164;4.472;2023-08-31T02:42:21;17.19;65.01
66670;DHT22;53568;52.164;4.472;2023-08-31T02:44:46;17.22;65.32
66670;DHT22;53568;52.164;4.472;2023-08-31T02:47:13;17.22;64.91
66670;DHT22;53568;52.164;4.472;2023-08-31T02:49:38;17.24;64.79
66670;DHT22;53568;52.164;4.472;2023-08-31T02:52:04;17.19;64.92
66670;DHT22;53568;52.164;4.472;2023-08-31T02:54:30;17.24;64.85
66670;DHT22;53568;52.164;4.472;2023-08-31T02:56:55;17.26;64.22
66670;DHT22;53568;52.164;4.472;2023-08-31T02:59:21;17.23;64.31
66670;DHT22;53568;52.164;4.472;2023-08-31T03:01:48;17.14;64.50
66670;DHT22;53568;52.164;4.472;2023-08-31T03:04:13;17.16;64.39
66670;DHT22;53568;52.164;4.472;2023-08-31T03:06:39;17.16;64.14
66670;DHT22;53568;52.164;4.472;2023-08-31T03:09:04;17.26;64.18
66670;DHT22;53568;52.164;4.472;2023-08-31T03:11:30;17.23;64.71
66670;DHT22;53568;52.164;4.472;2023-08-31T03:13:56;17.23;64.69
66670;DHT22;53568;52.164;4.472;2023-08-31T03:16:21;17.20;65.05
66670;DHT22;53568;52.164;4.472;2023-08-31T03:18:47;17.16;64.98
66670;DHT22;53568;52.164;4.472;2023-08-31T03:21:12;17.13;65.17
66670;DHT22;53568;52.164;4.472;2023-08-31T03:23:38;17.19;65.55
66670;DHT22;53568;52.164;4.472;2023-08-31T03:26:07;17.24;65.67
66670;DHT22;53568;52.164;4.472;2023-08-31T03:28:33;17.24;65.78
66670;DHT22;53568;52.164;4.472;2023-08-31T03:30:59;17.24;66.09
66670;DHT22;53568;52.164;4.472;2023-08-31T03:33:24;17.31;66.20
66670;DHT22;53568;52.164;4.472;2023-08-31T03:35:50;17.30;66.00
66670;DHT22;53568;52.164;4.472;2023-08-31T03:38:15;17.36;65.26
66670;DHT22;53568;52.164;4.472;2023-08-31T03:40:41;17.40;65.23
66670;DHT22;53568;52.164;4.472;2023-08-31T03:43:06;17.31;65.43
66670;DHT22;53568;52.164;4.472;2023-08-31T03:45:32;17.33;65.46
66670;DHT22;53568;52.164;4.472;2023-08-31T03:47:57;17.36;65.44
66670;DHT22;53568;52.164;4.472;2023-08-31T03:50:23;17.26;65.31
66670;DHT22;53568;52.164;4.472;2023-08-31T03:52:48;17.27;65.15
66670;DHT22;53568;52.164;4.472;2023-08-31T03:55:14;17.28;65.52
66670;DHT22;53568;52.164;4.472;2023-08-31T03:57:39;17.27;65.81
66670;DHT22;53568;52.164;4.472;2023-08-31T04:00:05;17.28;65.36
66670;DHT22;53568;52.164;4.472;2023-08-31T04:02:34;17.20;65.50
66670;DHT22;53568;52.164;4.472;2023-08-31T04:05:00;17.17;66.18
66670;DHT22;53568;52.164;4.472;2023-08-31T04:07:26;17.06;69.86
66670;DHT22;53568;52.164;4.472;2023-08-31T04:09:51;16.76;73.63
66670;DHT22;53568;52.164;4.472;2023-08-31T04:12:17;16.65;74.34
66670;DHT22;53568;52.164;4.472;2023-08-31T04:14:42;16.51;74.97
66670;DHT22;53568;52.164;4.472;2023-08-31T04:17:08;16.49;74.86
66670;DHT22;53568;52.164;4.472;2023-08-31T04:19:33;16.38;74.18
66670;DHT22;53568;52.164;4.472;2023-08-31T04:21:59;16.15;73.72
66670;DHT22;53568;52.164;4.472;2023-08-31T04:24:26;16.09;72.57
66670;DHT22;53568;52.164;4.472;2023-08-31T04:26:52;16.11;71.42
66670;DHT22;53568;52.164;4.472;2023-08-31T04:29:17;16.12;70.06
66670;DHT22;53568;52.164;4.472;2023-08-31T04:31:43;16.21;70.16
66670;DHT22;53568;52.164;4.472;2023-08-31T04:34:08;16.33;70.24
66670;DHT22;53568;52.164;4.472;2023-08-31T04:36:34;16.44;69.82
66670;DHT22;53568;52.164;4.472;2023-08-31T04:38:59;16.44;69.65
66670;DHT22;53568;52.164;4.472;2023-08-31T04:41:25;16.48;69.37
66670;DHT22;53568;52.164;4.472;2023-08-31T04:43:50;16.55;69.76
66670;DHT22;53568;52.164;4.472;2023-08-31T04:46:16;16.62;69.74
66670;DHT22;53568;52.164;4.472;2023-08-31T04:48:42;16.59;69.79
66670;DHT22;53568;52.164;4.472;2023-08-31T04:51:27;16.48;72.26
66670;DHT22;53568;52.164;4.472;2023-08-31T04:53:53;16.46;73.19
66670;DHT22;53568;52.164;4.472;2023-08-31T04:56:18;16.49;73.24
66670;DHT22;53568;52.164;4.472;2023-08-31T04:58:43;16.45;73.70
66670;DHT22;53568;52.164;4.472;2023-08-31T05:01:09;16.44;74.10
66670;DHT22;53568;52.164;4.472;2023-08-31T05:03:34;16.38;74.05
66670;DHT22;53568;52.164;4.472;2023-08-31T05:06:00;16.26;73.88
66670;DHT22;53568;52.164;4.472;2023-08-31T05:08:25;16.22;73.38
66670;DHT22;53568;52.164;4.472;2023-08-31T05:10:51;16.21;72.94
66670;DHT22;53568;52.164;4.472;2023-08-31T05:13:16;16.15;72.87
66670;DHT22;53568;52.164;4.472;2023-08-31T05:15:42;16.26;72.70
66670;DHT22;53568;52.164;4.472;2023-08-31T05:18:07;16.29;72.71
66670;DHT22;53568;52.164;4.472;2023-08-31T05:20:34;16.26;72.56
66670;DHT22;53568;52.164;4.472;2023-08-31T05:22:59;16.36;71.93
66670;DHT22;53568;52.164;4.472;2023-08-31T05:25:25;16.41;71.76
66670;DHT22;53568;52.164;4.472;2023-08-31T05:27:50;16.52;71.92
66670;DHT22;53568;52.164;4.472;2023-08-31T05:30:16;16.55;72.04
66670;DHT22;53568;52.164;4.472;2023-08-31T05:32:42;16.58;71.98
66670;DHT22;53568;52.164;4.472;2023-08-31T05:35:07;16.58;72.06
66670;DHT22;53568;52.164;4.472;2023-08-31T05:37:33;16.58;71.96
66670;DHT22;53568;52.164;4.472;2023-08-31T05:40:01;16.60;72.00
66670;DHT22;53568;52.164;4.472;2023-08-31T05:42:26;16.63;71.76
66670;DHT22;53568;52.164;4.472;2023-08-31T05:44:52;16.75;71.55
66670;DHT22;53568;52.164;4.472;2023-08-31T05:47:17;16.79;71.55
66670;DHT22;53568;52.164;4.472;2023-08-31T05:49:43;16.83;71.56
66670;DHT22;53568;52.164;4.472;2023-08-31T05:52:08;16.90;71.25
66670;DHT22;53568;52.164;4.472;2023-08-31T05:54:34;16.94;70.47
66670;DHT22;53568;52.164;4.472;2023-08-31T05:57:01;16.90;69.83
66670;DHT22;53568;52.164;4.472;2023-08-31T05:59:28;16.86;70.06
66670;DHT22;53568;52.164;4.472;2023-08-31T06:01:54;16.96;70.12
66670;DHT22;53568;52.164;4.472;2023-08-31T06:04:19;16.90;70.75
66670;DHT22;53568;52.164;4.472;2023-08-31T06:06:45;16.94;69.79
66670;DHT22;53568;52.164;4.472;2023-08-31T06:09:11;16.99;69.32
66670;DHT22;53568;52.164;4.472;2023-08-31T06:11:37;16.97;68.19
66670;DHT22;53568;52.164;4.472;2023-08-31T06:14:02;17.06;67.21
66670;DHT22;53568;52.164;4.472;2023-08-31T06:16:28;17.07;66.92
66670;DHT22;53568;52.164;4.472;2023-08-31T06:18:54;17.04;67.91
66670;DHT22;53568;52.164;4.472;2023-08-31T06:21:19;16.92;69.58
66670;DHT22;53568;52.164;4.472;2023-08-31T06:23:45;16.87;70.54
66670;DHT22;53568;52.164;4.472;2023-08-31T06:26:10;16.90;70.77
66670;DHT22;53568;52.164;4.472;2023-08-31T06:28:36;16.94;70.59
66670;DHT22;53568;52.164;4.472;2023-08-31T06:31:02;17.06;69.51
66670;DHT22;53568;52.164;4.472;2023-08-31T06:33:27;17.09;69.54
66670;DHT22;53568;52.164;4.472;2023-08-31T06:35:53;17.07;69.29
66670;DHT22;53568;52.164;4.472;2023-08-31T06:38:19;17.14;68.96
66670;DHT22;53568;52.164;4.472;2023-08-31T06:40:46;17.14;68.69
66670;DHT22;53568;52.164;4.472;2023-08-31T06:43:12;17.31;68.32
66670;DHT22;53568;52.164;4.472;2023-08-31T06:45:37;17.33;68.14
66670;DHT22;53568;52.164;4.472;2023-08-31T06:48:03;17.38;67.79
66670;DHT22;53568;52.164;4.472;2023-08-31T06:50:29;17.53;67.57
66670;DHT22;53568;52.164;4.472;2023-08-31T06:52:55;17.53;67.18
66670;DHT22;53568;52.164;4.472;2023-08-31T06:55:20;17.58;67.23
66670;DHT22;53568;52.164;4.472;2023-08-31T06:57:46;17.64;66.76
66670;DHT22;53568;52.164;4.472;2023-08-31T07:00:12;17.64;66.67
66670;DHT22;53568;52.164;4.472;2023-08-31T07:02:40;17.66;66.37
66670;DHT22;53568;52.164;4.472;2023-08-31T07:05:07;17.68;65.68
66670;DHT22;53568;52.164;4.472;2023-08-31T07:07:32;17.67;65.18
66670;DHT22;53568;52.164;4.472;2023-08-31T07:09:58;17.67;64.24
66670;DHT22;53568;52.164;4.472;2023-08-31T07:12:23;17.60;64.08
66670;DHT22;53568;52.164;4.472;2023-08-31T07:14:49;17.61;64.12
66670;DHT22;53568;52.164;4.472;2023-08-31T07:17:18;17.68;63.96
66670;DHT22;53568;52.164;4.472;2023-08-31T07:19:43;17.85;63.53
66670;DHT22;53568;52.164;4.472;2023-08-31T07:22:09;17.85;63.78
66670;DHT22;53568;52.164;4.472;2023-08-31T07:24:35;17.94;64.45
66670;DHT22;53568;52.164;4.472;2023-08-31T07:27:02;17.85;64.69
66670;DHT22;53568;52.164;4.472;2023-08-31T07:29:27;17.85;64.87
66670;DHT22;53568;52.164;4.472;2023-08-31T07:31:53;17.90;64.97
66670;DHT22;53568;52.164;4.472;2023-08-31T07:34:19;17.94;64.57
66670;DHT22;53568;52.164;4.472;2023-08-31T07:36:44;18.09;63.57
66670;DHT22;53568;52.164;4.472;2023-08-31T07:39:10;18.06;63.74
66670;DHT22;53568;52.164;4.472;2023-08-31T07:41:35;18.16;62.99
66670;DHT22;53568;52.164;4.472;2023-08-31T07:44:01;18.31;63.16
66670;DHT22;53568;52.164;4.472;2023-08-31T07:46:28;18.33;63.44
66670;DHT22;53568;52.164;4.472;2023-08-31T07:48:53;18.33;63.38
66670;DHT22;53568;52.164;4.472;2023-08-31T07:51:19;18.43;62.31
66670;DHT22;53568;52.164;4.472;2023-08-31T07:53:49;18.53;62.63
66670;DHT22;53568;52.164;4.472;2023-08-31T07:56:15;18.57;62.53
66670;DHT22;53568;52.164;4.472;2023-08-31T07:58:40;18.45;61.39
66670;DHT22;53568;52.164;4.472;2023-08-31T08:01:06;18.48;61.92
66670;DHT22;53568;52.164;4.472;2023-08-31T08:03:31;18.60;61.81
66670;DHT22;53568;52.164;4.472;2023-08-31T08:05:57;18.65;61.82
66670;DHT22;53568;52.164;4.472;2023-08-31T08:08:22;18.70;61.68
66670;DHT22;53568;52.164;4.472;2023-08-31T08:10:52;18.70;61.40
66670;DHT22;53568;52.164;4.472;2023-08-31T08:13:18;18.53;61.11
66670;DHT22;53568;52.164;4.472;2023-08-31T08:15:45;18.60;61.10
66670;DHT22;53568;52.164;4.472;2023-08-31T08:18:10;18.59;61.12
66670;DHT22;53568;52.164;4.472;2023-08-31T08:20:36;18.65;61.55
66670;DHT22;53568;52.164;4.472;2023-08-31T08:23:01;18.80;61.01
66670;DHT22;53568;52.164;4.472;2023-08-31T08:25:27;18.86;60.94
66670;DHT22;53568;52.164;4.472;2023-08-31T08:27:52;18.73;61.70
66670;DHT22;53568;52.164;4.472;2023-08-31T08:30:18;18.65;60.85
66670;DHT22;53568;52.164;4.472;2023-08-31T08:32:45;18.55;60.90
66670;DHT22;53568;52.164;4.472;2023-08-31T08:35:10;18.65;61.59
66670;DHT22;53568;52.164;4.472;2023-08-31T08:37:36;18.85;61.58
66670;DHT22;53568;52.164;4.472;2023-08-31T08:40:02;18.92;60.35
66670;DHT22;53568;52.164;4.472;2023-08-31T08:42:30;18.97;60.19
66670;DHT22;53568;52.164;4.472;2023-08-31T08:45:01;19.13;60.01
66670;DHT22;53568;52.164;4.472;2023-08-31T08:47:28;19.19;59.87
66670;DHT22;53568;52.164;4.472;2023-08-31T08:49:57;19.14;59.19
66670;DHT22;53568;52.164;4.472;2023-08-31T08:52:24;19.10;58.85
66670;DHT22;53568;52.164;4.472;2023-08-31T08:54:49;19.16;59.09
66670;DHT22;53568;52.164;4.472;2023-08-31T08:57:16;19.06;59.72
66670;DHT22;53568;52.164;4.472;2023-08-31T08:59:41;18.95;58.91
66670;DHT22;53568;52.164;4.472;2023-08-31T09:02:11;19.04;59.05
66670;DHT22;53568;52.164;4.472;2023-08-31T09:04:37;19.21;59.42
66670;DHT22;53568;52.164;4.472;2023-08-31T09:07:03;19.24;59.88
66670;DHT22;53568;52.164;4.472;2023-08-31T09:09:28;19.24;58.23
66670;DHT22;53568;52.164;4.472;2023-08-31T09:11:54;19.02;57.71
66670;DHT22;53568;52.164;4.472;2023-08-31T09:14:21;18.95;57.75
66670;DHT22;53568;52.164;4.472;2023-08-31T09:16:49;19.09;58.33
66670;DHT22;53568;52.164;4.472;2023-08-31T09:19:23;18.99;59.32
66670;DHT22;53568;52.164;4.472;2023-08-31T09:21:50;19.03;59.18
66670;DHT22;53568;52.164;4.472;2023-08-31T09:24:16;19.16;57.89
66670;DHT22;53568;52.164;4.472;2023-08-31T09:26:47;19.19;56.77
66670;DHT22;53568;52.164;4.472;2023-08-31T09:29:13;19.07;56.57
66670;DHT22;53568;52.164;4.472;2023-08-31T09:31:49;19.09;57.29
66670;DHT22;53568;52.164;4.472;2023-08-31T09:34:15;19.09;57.67
66670;DHT22;53568;52.164;4.472;2023-08-31T09:36:41;19.11;58.17
66670;DHT22;53568;52.164;4.472;2023-08-31T09:39:08;18.92;59.15
66670;DHT22;53568;52.164;4.472;2023-08-31T09:41:35;18.95;57.81
66670;DHT22;53568;52.164;4.472;2023-08-31T09:44:17;19.00;57.84
66670;DHT22;53568;52.164;4.472;2023-08-31T09:46:44;19.03;55.19
66670;DHT22;53568;52.164;4.472;2023-08-31T09:49:15;19.09;54.78
66670;DHT22;53568;52.164;4.472;2023-08-31T09:51:44;19.26;53.59
66670;DHT22;53568;52.164;4.472;2023-08-31T09:54:14;19.37;53.42
66670;DHT22;53568;52.164;4.472;2023-08-31T09:56:45;19.54;54.49
66670;DHT22;53568;52.164;4.472;2023-08-31T09:59:13;19.60;55.04
66670;DHT22;53568;52.164;4.472;2023-08-31T10:01:40;19.61;53.65
66670;DHT22;53568;52.164;4.472;2023-08-31T10:04:07;19.61;54.20
66670;DHT22;53568;52.164;4.472;2023-08-31T10:06:39;19.67;54.56
66670;DHT22;53568;52.164;4.472;2023-08-31T10:09:04;19.65;53.38
66670;DHT22;53568;52.164;4.472;2023-08-31T10:11:31;19.74;53.69
66670;DHT22;53568;52.164;4.472;2023-08-31T10:13:58;19.84;54.63
66670;DHT22;53568;52.164;4.472;2023-08-31T10:16:25;19.89;54.13
66670;DHT22;53568;52.164;4.472;2023-08-31T10:18:51;19.94;53.93
66670;DHT22;53568;52.164;4.472;2023-08-31T10:21:18;19.98;54.27
66670;DHT22;53568;52.164;4.472;2023-08-31T10:23:48;19.84;53.26
66670;DHT22;53568;52.164;4.472;2023-08-31T10:26:28;19.81;53.06
66670;DHT22;53568;52.164;4.472;2023-08-31T10:28:55;19.79;53.57
66670;DHT22;53568;52.164;4.472;2023-08-31T10:31:21;19.88;54.49
66670;DHT22;53568;52.164;4.472;2023-08-31T10:33:56;20.04;55.09
66670;DHT22;53568;52.164;4.472;2023-08-31T10:36:36;19.99;54.46
66670;DHT22;53568;52.164;4.472;2023-08-31T10:39:11;19.98;54.86
66670;DHT22;53568;52.164;4.472;2023-08-31T10:41:37;19.92;55.22
66670;DHT22;53568;52.164;4.472;2023-08-31T10:44:21;19.94;54.36
66670;DHT22;53568;52.164;4.472;2023-08-31T10:46:46;19.81;52.79
66670;DHT22;53568;52.164;4.472;2023-08-31T10:51:49;19.78;52.06
66670;DHT22;53568;52.164;4.472;2023-08-31T10:54:31;19.74;52.98
66670;DHT22;53568;52.164;4.472;2023-08-31T10:59:52;19.84;54.23
66670;DHT22;53568;52.164;4.472;2023-08-31T11:04:59;19.98;54.04
66670;DHT22;53568;52.164;4.472;2023-08-31T11:07:27;20.04;54.32
66670;DHT22;53568;52.164;4.472;2023-08-31T11:10:07;20.02;53.89
66670;DHT22;53568;52.164;4.472;2023-08-31T11:12:32;20.11;54.17
66670;DHT22;53568;52.164;4.472;2023-08-31T11:14:58;20.15;54.02
66670;DHT22;53568;52.164;4.472;2023-08-31T11:17:24;20.17;54.14
66670;DHT22;53568;52.164;4.472;2023-08-31T11:19:49;20.12;52.73
66670;DHT22;53568;52.164;4.472;2023-08-31T11:22:15;20.05;53.60
66670;DHT22;53568;52.164;4.472;2023-08-31T11:24:41;20.09;54.12
66670;DHT22;53568;52.164;4.472;2023-08-31T11:27:09;20.19;54.29
66670;DHT22;53568;52.164;4.472;2023-08-31T11:29:44;20.14;53.06
66670;DHT22;53568;52.164;4.472;2023-08-31T11:32:10;20.01;51.46
66670;DHT22;53568;52.164;4.472;2023-08-31T11:34:43;19.84;51.86
66670;DHT22;53568;52.164;4.472;2023-08-31T11:37:11;19.88;52.71
66670;DHT22;53568;52.164;4.472;2023-08-31T11:39:41;19.84;54.26
66670;DHT22;53568;52.164;4.472;2023-08-31T11:42:08;19.94;54.58
66670;DHT22;53568;52.164;4.472;2023-08-31T11:44:34;20.14;54.88
66670;DHT22;53568;52.164;4.472;2023-08-31T11:47:00;20.15;53.24
66670;DHT22;53568;52.164;4.472;2023-08-31T11:49:27;20.24;52.53
66670;DHT22;53568;52.164;4.472;2023-08-31T11:51:54;20.26;51.97
66670;DHT22;53568;52.164;4.472;2023-08-31T11:54:20;20.33;51.82
66670;DHT22;53568;52.164;4.472;2023-08-31T11:56:46;20.45;52.11
66670;DHT22;53568;52.164;4.472;2023-08-31T11:59:18;20.48;52.25
66670;DHT22;53568;52.164;4.472;2023-08-31T12:01:46;20.53;52.43
66670;DHT22;53568;52.164;4.472;2023-08-31T12:04:22;20.41;53.13
66670;DHT22;53568;52.164;4.472;2023-08-31T12:06:50;20.19;52.00
66670;DHT22;53568;52.164;4.472;2023-08-31T12:09:17;20.11;52.32
66670;DHT22;53568;52.164;4.472;2023-08-31T12:11:52;20.21;52.55
66670;DHT22;53568;52.164;4.472;2023-08-31T12:14:19;20.36;51.81
66670;DHT22;53568;52.164;4.472;2023-08-31T12:16:45;20.39;51.34
66670;DHT22;53568;52.164;4.472;2023-08-31T12:19:14;20.38;51.65
66670;DHT22;53568;52.164;4.472;2023-08-31T12:21:42;20.49;51.73
66670;DHT22;53568;52.164;4.472;2023-08-31T12:24:08;20.53;51.26
66670;DHT22;53568;52.164;4.472;2023-08-31T12:26:34;20.45;51.46
66670;DHT22;53568;52.164;4.472;2023-08-31T12:29:00;20.38;51.71
66670;DHT22;53568;52.164;4.472;2023-08-31T12:31:26;20.51;52.40
66670;DHT22;53568;52.164;4.472;2023-08-31T12:33:52;20.61;51.47
66670;DHT22;53568;52.164;4.472;2023-08-31T12:36:17;20.38;51.25
66670;DHT22;53568;52.164;4.472;2023-08-31T12:38:43;20.19;51.84
66670;DHT22;53568;52.164;4.472;2023-08-31T12:41:08;20.02;51.81
66670;DHT22;53568;52.164;4.472;2023-08-31T12:43:34;20.07;50.39
66670;DHT22;53568;52.164;4.472;2023-08-31T12:46:00;20.21;51.57
66670;DHT22;53568;52.164;4.472;2023-08-31T12:48:26;20.28;51.16
66670;DHT22;53568;52.164;4.472;2023-08-31T12:50:52;20.25;51.37
66670;DHT22;53568;52.164;4.472;2023-08-31T12:53:21;20.28;51.12
66670;DHT22;53568;52.164;4.472;2023-08-31T12:55:47;20.38;51.93
66670;DHT22;53568;52.164;4.472;2023-08-31T12:58:12;20.52;51.97
66670;DHT22;53568;52.164;4.472;2023-08-31T13:00:38;20.45;50.78
66670;DHT22;53568;52.164;4.472;2023-08-31T13:03:04;20.42;50.87
66670;DHT22;53568;52.164;4.472;2023-08-31T13:05:32;20.35;50.41
66670;DHT22;53568;52.164;4.472;2023-08-31T13:07:57;20.46;50.24
66670;DHT22;53568;52.164;4.472;2023-08-31T13:10:23;20.32;51.18
66670;DHT22;53568;52.164;4.472;2023-08-31T13:12:49;20.36;50.19
66670;DHT22;53568;52.164;4.472;2023-08-31T13:15:14;20.38;49.60
66670;DHT22;53568;52.164;4.472;2023-08-31T13:17:40;20.29;50.57
66670;DHT22;53568;52.164;4.472;2023-08-31T13:20:06;20.36;51.39
66670;DHT22;53568;52.164;4.472;2023-08-31T13:22:33;20.35;50.92
66670;DHT22;53568;52.164;4.472;2023-08-31T13:25:00;20.28;52.17
66670;DHT22;53568;52.164;4.472;2023-08-31T13:27:25;20.31;50.11
66670;DHT22;53568;52.164;4.472;2023-08-31T13:29:51;20.18;50.40
66670;DHT22;53568;52.164;4.472;2023-08-31T13:32:16;20.24;51.09
66670;DHT22;53568;52.164;4.472;2023-08-31T13:34:42;20.29;51.69
66670;DHT22;53568;52.164;4.472;2023-08-31T13:37:07;20.41;52.04
66670;DHT22;53568;52.164;4.472;2023-08-31T13:39:35;20.36;51.83
66670;DHT22;53568;52.164;4.472;2023-08-31T13:42:05;20.31;52.58
66670;DHT22;53568;52.164;4.472;2023-08-31T13:44:32;20.38;51.42
66670;DHT22;53568;52.164;4.472;2023-08-31T13:46:58;20.38;49.94
66670;DHT22;53568;52.164;4.472;2023-08-31T13:49:23;20.48;50.19
66670;DHT22;53568;52.164;4.472;2023-08-31T13:51:49;20.62;51.49
66670;DHT22;53568;52.164;4.472;2023-08-31T13:54:14;20.69;50.90
66670;DHT22;53568;52.164;4.472;2023-08-31T13:56:40;20.76;49.49
66670;DHT22;53568;52.164;4.472;2023-08-31T13:59:05;20.63;48.45
66670;DHT22;53568;52.164;4.472;2023-08-31T14:01:31;20.73;48.78
66670;DHT22;53568;52.164;4.472;2023-08-31T14:03:56;20.83;49.75
66670;DHT22;53568;52.164;4.472;2023-08-31T14:06:22;20.87;48.97
66670;DHT22;53568;52.164;4.472;2023-08-31T14:08:47;20.79;50.40
66670;DHT22;53568;52.164;4.472;2023-08-31T14:11:14;20.79;50.42
66670;DHT22;53568;52.164;4.472;2023-08-31T14:13:43;20.75;50.43
66670;DHT22;53568;52.164;4.472;2023-08-31T14:16:09;20.75;48.70
66670;DHT22;53568;52.164;4.472;2023-08-31T14:18:34;20.75;48.07
66670;DHT22;53568;52.164;4.472;2023-08-31T14:21:00;20.75;48.47
66670;DHT22;53568;52.164;4.472;2023-08-31T14:23:26;20.82;48.71
66670;DHT22;53568;52.164;4.472;2023-08-31T14:25:52;20.89;49.15
66670;DHT22;53568;52.164;4.472;2023-08-31T14:28:18;20.95;49.27
66670;DHT22;53568;52.164;4.472;2023-08-31T14:30:43;21.02;47.96
66670;DHT22;53568;52.164;4.472;2023-08-31T14:33:09;20.80;48.19
66670;DHT22;53568;52.164;4.472;2023-08-31T14:35:38;20.79;48.83
66670;DHT22;53568;52.164;4.472;2023-08-31T14:38:09;20.75;49.55
66670;DHT22;53568;52.164;4.472;2023-08-31T14:40:38;20.72;49.85
66670;DHT22;53568;52.164;4.472;2023-08-31T14:43:06;20.72;50.36
66670;DHT22;53568;52.164;4.472;2023-08-31T14:45:31;20.77;50.02
66670;DHT22;53568;52.164;4.472;2023-08-31T14:47:57;20.65;48.37
66670;DHT22;53568;52.164;4.472;2023-08-31T14:50:22;20.57;47.07
66670;DHT22;53568;52.164;4.472;2023-08-31T14:52:49;20.68;47.73
66670;DHT22;53568;52.164;4.472;2023-08-31T14:55:14;20.68;47.97
66670;DHT22;53568;52.164;4.472;2023-08-31T14:57:41;20.80;47.57
66670;DHT22;53568;52.164;4.472;2023-08-31T15:00:08;20.85;48.31
66670;DHT22;53568;52.164;4.472;2023-08-31T15:02:34;20.90;48.01
66670;DHT22;53568;52.164;4.472;2023-08-31T15:05:00;20.85;48.80
66670;DHT22;53568;52.164;4.472;2023-08-31T15:07:25;20.97;48.44
66670;DHT22;53568;52.164;4.472;2023-08-31T15:09:52;20.95;47.82
66670;DHT22;53568;52.164;4.472;2023-08-31T15:12:18;20.97;46.73
66670;DHT22;53568;52.164;4.472;2023-08-31T15:14:43;20.87;47.10
66670;DHT22;53568;52.164;4.472;2023-08-31T15:17:09;20.93;47.08
66670;DHT22;53568;52.164;4.472;2023-08-31T15:19:34;20.89;48.39
66670;DHT22;53568;52.164;4.472;2023-08-31T15:22:00;20.66;49.09
66670;DHT22;53568;52.164;4.472;2023-08-31T15:24:25;20.65;49.07
66670;DHT22;53568;52.164;4.472;2023-08-31T15:26:51;20.77;48.51
66670;DHT22;53568;52.164;4.472;2023-08-31T15:29:17;20.65;47.58
66670;DHT22;53568;52.164;4.472;2023-08-31T15:31:42;20.71;48.06
66670;DHT22;53568;52.164;4.472;2023-08-31T15:34:11;20.57;48.48
66670;DHT22;53568;52.164;4.472;2023-08-31T15:36:37;20.68;48.57
66670;DHT22;53568;52.164;4.472;2023-08-31T15:39:02;20.75;47.73